Burns, Mississippi
Current Conditions -  °F | °C
As of 1:54 AM on Tuesday 21 Oct 2014 (Local Time) from KJAN Reporting Station
Clear Clear  
Wind Chill: 50°   Ceiling: Unl
Heat Index: 50°   Visibility: 10mi
Dew Point: 49°   Wind: 0mph
Humidity: 96%   Direction: NA
Pressure: 30.04"   Gusts: NA
Location:  32.0729°N, 89.5094°W
Report Text: KJAN 210654Z AUTO 00000KT 10SM CLR 10/09 A3004 RMK AO2 SLP170 T01000094
Loading
Personal Weather Stations






























Interactive Weather Map
Tropical Storm Tracking
New forecast layout! Learn more

10-Day Weather Forecast

Advertisements
Track Severe Weather on mobile